Time;durP1;ratioP1;P1;durP2;ratioP2;P2;SDS_P1;SDS_P2;PMS_P1;PMS_P2;Temp;Humidity;BMP_temperature;BMP_pressure;BME280_temperature;BME280_humidity;BME280_pressure;Samples;Min_cycle;Max_cycle;Signal;HPM_P1;HPM_P2
2022/11/15 00:01:40;;;;;;;;;;;10.50;73.40;;;;;;4959399;29;19977;-79
2022/11/15 00:04:25;;;;;;;;;;;10.50;73.40;;;;;;4958366;29;19922;-79
2022/11/15 00:07:09;;;;;;;;;;;10.50;73.40;;;;;;4959068;29;19929;-79
2022/11/15 00:09:53;;;;;;;;;;;10.50;73.40;;;;;;4958865;29;19926;-80
2022/11/15 00:12:37;;;;;;;;;;;10.50;73.40;;;;;;4957191;29;20386;-79
2022/11/15 00:15:21;;;;;;;;;;;10.50;74.00;;;;;;4957148;29;19922;-79
2022/11/15 00:18:06;;;;;;;;;;;10.50;73.40;;;;;;4957666;29;19921;-81
2022/11/15 00:20:50;;;;;;;;;;;10.50;73.30;;;;;;4957984;29;19941;-79
2022/11/15 00:23:35;;;;;;;;;;;10.50;73.40;;;;;;4957855;29;19965;-82
2022/11/15 00:26:19;;;;;;;;;;;10.60;73.40;;;;;;4957112;29;19930;-79
2022/11/15 00:29:03;;;;;;;;;;;10.60;73.40;;;;;;4956878;29;19981;-80
2022/11/15 00:31:47;;;;;;;;;;;10.60;73.50;;;;;;4957419;29;20372;-79
2022/11/15 00:34:32;;;;;;;;;;;10.60;73.50;;;;;;4957239;29;20023;-80
2022/11/15 00:37:16;;;;;;;;;;;10.60;73.50;;;;;;4956499;29;20296;-80
2022/11/15 00:40:00;;;;;;;;;;;10.60;73.40;;;;;;4943255;29;20398;-79
2022/11/15 00:42:44;;;;;;;;;;;10.60;73.50;;;;;;4956571;28;20284;-79
2022/11/15 00:45:28;;;;;;;;;;;10.60;73.50;;;;;;4956582;29;19941;-79
2022/11/15 00:48:12;;;;;;;;;;;10.60;73.50;;;;;;4957127;29;19921;-79
2022/11/15 00:50:57;;;;;;;;;;;10.60;73.50;;;;;;4957613;29;20375;-80
2022/11/15 00:53:41;;;;;;;;;;;10.60;73.50;;;;;;4956635;29;19921;-79
2022/11/15 00:56:26;;;;;;;;;;;10.60;73.50;;;;;;4957117;29;19921;-79
2022/11/15 00:59:10;;;;;;;;;;;10.70;73.50;;;;;;4956194;29;19966;-83
2022/11/15 01:01:54;;;;;;;;;;;10.60;73.50;;;;;;4943388;29;19968;-78
2022/11/15 01:04:39;;;;;;;;;;;10.60;73.50;;;;;;4943298;29;20029;-78
2022/11/15 01:07:23;;;;;;;;;;;10.70;73.50;;;;;;4957422;29;19930;-79
2022/11/15 01:10:08;;;;;;;;;;;10.70;73.50;;;;;;4957826;29;19937;-78
2022/11/15 01:12:52;;;;;;;;;;;10.70;73.50;;;;;;4956784;29;19977;-78
2022/11/15 01:15:39;;;;;;;;;;;10.70;73.50;;;;;;4957090;29;19925;-78
2022/11/15 01:18:23;;;;;;;;;;;10.70;73.50;;;;;;4956595;29;19981;-80
2022/11/15 01:21:08;;;;;;;;;;;10.70;73.50;;;;;;4957548;29;19924;-79
2022/11/15 01:23:56;;;;;;;;;;;10.70;73.60;;;;;;4956503;29;20283;-78
2022/11/15 01:26:40;;;;;;;;;;;10.70;73.50;;;;;;4957462;29;20028;-79
2022/11/15 01:29:25;;;;;;;;;;;10.70;73.50;;;;;;4956392;29;20451;-80
2022/11/15 01:32:09;;;;;;;;;;;10.70;73.50;;;;;;4956456;29;19973;-79
2022/11/15 01:34:53;;;;;;;;;;;10.70;73.50;;;;;;4955475;29;20334;-78
2022/11/15 01:37:37;;;;;;;;;;;10.70;73.60;;;;;;4956391;29;19925;-79
2022/11/15 01:40:21;;;;;;;;;;;10.70;73.60;;;;;;4956334;29;19985;-79
2022/11/15 01:43:25;;;;;;;;;;;10.70;73.60;;;;;;4956387;29;19927;-79
2022/11/15 01:46:28;;;;;;;;;;;10.80;73.60;;;;;;4956909;29;20147;-79
2022/11/15 01:49:16;;;;;;;;;;;10.80;73.60;;;;;;4956143;29;19966;-79
2022/11/15 01:52:01;;;;;;;;;;;10.80;73.60;;;;;;4955622;29;19973;-79
2022/11/15 01:54:46;;;;;;;;;;;10.80;73.60;;;;;;4956078;28;19922;-79
2022/11/15 01:57:30;;;;;;;;;;;10.80;73.60;;;;;;4956488;29;20065;-79
2022/11/15 02:00:14;;;;;;;;;;;10.80;73.60;;;;;;4955473;29;20052;-81
2022/11/15 02:02:59;;;;;;;;;;;10.80;73.60;;;;;;4956426;29;19926;-78
2022/11/15 02:05:44;;;;;;;;;;;10.80;73.60;;;;;;4955315;29;19928;-79
2022/11/15 02:08:28;;;;;;;;;;;10.80;73.60;;;;;;4956011;29;19966;-79
2022/11/15 02:11:12;;;;;;;;;;;10.80;73.60;;;;;;4955956;29;19925;-79
2022/11/15 02:13:58;;;;;;;;;;;10.80;73.60;;;;;;4941723;29;19925;-78
2022/11/15 02:16:42;;;;;;;;;;;10.90;73.60;;;;;;4956684;29;19969;-79
2022/11/15 02:19:32;;;;;;;;;;;10.80;73.60;;;;;;4956626;29;20438;-80
2022/11/15 02:22:35;;;;;;;;;;;10.90;73.60;;;;;;4955146;29;19922;-82
2022/11/15 02:25:23;;;;;;;;;;;10.90;73.60;;;;;;4955509;29;20390;-80
2022/11/15 02:28:13;;;;;;;;;;;10.90;73.70;;;;;;4956961;29;20021;-79
2022/11/15 02:31:05;;;;;;;;;;;10.90;73.60;;;;;;4956499;29;19989;-79
2022/11/15 02:33:49;;;;;;;;;;;10.90;73.70;;;;;;4955997;29;19921;-78
2022/11/15 02:36:39;;;;;;;;;;;10.90;73.70;;;;;;4955596;29;19921;-78
2022/11/15 02:39:29;;;;;;;;;;;10.90;73.70;;;;;;4955967;29;20389;-78
2022/11/15 02:45:27;;;;;;;;;;;11.00;73.70;;;;;;4956131;29;19925;-79
2022/11/15 02:48:12;;;;;;;;;;;11.00;73.70;;;;;;4956429;29;19941;-80
2022/11/15 02:50:56;;;;;;;;;;;11.00;73.80;;;;;;4955923;29;20055;-79
2022/11/15 02:53:40;;;;;;;;;;;11.00;73.80;;;;;;4955478;29;19929;-78
2022/11/15 02:56:24;;;;;;;;;;;10.90;73.70;;;;;;4956345;29;19926;-78
2022/11/15 02:59:29;;;;;;;;;;;11.00;73.80;;;;;;4955808;29;19941;-79
2022/11/15 03:02:22;;;;;;;;;;;11.00;73.80;;;;;;4955310;29;20299;-78
2022/11/15 03:05:28;;;;;;;;;;;11.00;73.80;;;;;;4954097;29;20137;-79
2022/11/15 03:08:28;;;;;;;;;;;11.00;73.80;;;;;;4950762;29;20380;-79
2022/11/15 03:11:17;;;;;;;;;;;11.00;73.80;;;;;;4959731;29;19921;-81
2022/11/15 03:14:13;;;;;;;;;;;11.00;73.80;;;;;;4959097;29;19953;-78
2022/11/15 03:17:12;;;;;;;;;;;11.10;73.80;;;;;;4959254;29;20017;-78
2022/11/15 03:19:58;;;;;;;;;;;11.10;73.80;;;;;;4958807;29;20508;-79
2022/11/15 03:22:44;;;;;;;;;;;11.10;73.80;;;;;;4958715;29;19922;-78
2022/11/15 03:25:29;;;;;;;;;;;11.10;73.80;;;;;;4959515;29;20009;-79
2022/11/15 03:28:15;;;;;;;;;;;11.10;73.80;;;;;;4958266;29;19929;-79
2022/11/15 03:31:00;;;;;;;;;;;11.10;73.80;;;;;;4958308;29;19949;-79
2022/11/15 03:33:44;;;;;;;;;;;11.10;73.80;;;;;;4958108;29;19921;-78
2022/11/15 03:36:30;;;;;;;;;;;11.20;73.80;;;;;;4958600;29;19964;-80
2022/11/15 03:39:14;;;;;;;;;;;11.20;73.80;;;;;;4959073;29;20359;-79
2022/11/15 03:42:17;;;;;;;;;;;11.20;73.80;;;;;;4944866;29;19973;-81
2022/11/15 03:45:12;;;;;;;;;;;11.20;73.80;;;;;;4959159;29;20018;-78
2022/11/15 03:48:02;;;;;;;;;;;11.20;73.80;;;;;;4959278;29;19976;-79
2022/11/15 03:50:47;;;;;;;;;;;11.30;73.90;;;;;;4959294;29;20374;-79
2022/11/15 03:53:31;;;;;;;;;;;11.30;73.80;;;;;;4957627;29;20279;-79
2022/11/15 03:56:15;;;;;;;;;;;11.30;73.80;;;;;;4957580;29;19925;-81
2022/11/15 03:58:59;;;;;;;;;;;11.30;73.80;;;;;;4944442;29;20276;-81
2022/11/15 04:01:43;;;;;;;;;;;11.30;73.80;;;;;;4957848;29;19925;-80
2022/11/15 04:04:28;;;;;;;;;;;11.30;73.80;;;;;;4958297;29;19925;-80
2022/11/15 04:07:12;;;;;;;;;;;11.30;73.90;;;;;;4957082;29;19933;-81
2022/11/15 04:10:02;;;;;;;;;;;11.30;73.90;;;;;;4944393;29;19926;-78
2022/11/15 04:12:47;;;;;;;;;;;11.40;73.90;;;;;;4945127;29;20050;-78
2022/11/15 04:15:31;;;;;;;;;;;11.40;73.90;;;;;;4943741;29;20308;-79
2022/11/15 04:18:15;;;;;;;;;;;11.40;73.90;;;;;;4956452;28;19997;-78
2022/11/15 04:26:51;;;;;;;;;;;11.40;73.90;;;;;;4957629;29;19950;-78
2022/11/15 04:29:35;;;;;;;;;;;11.50;73.90;;;;;;4957510;29;20304;-78
2022/11/15 04:32:19;;;;;;;;;;;11.50;73.90;;;;;;4943830;29;19970;-79
2022/11/15 04:35:04;;;;;;;;;;;11.50;73.90;;;;;;4956907;29;19943;-78
2022/11/15 04:37:48;;;;;;;;;;;11.50;74.00;;;;;;4957082;29;20370;-79
2022/11/15 04:40:32;;;;;;;;;;;11.50;73.90;;;;;;4956796;29;20288;-79
2022/11/15 04:43:16;;;;;;;;;;;11.50;73.90;;;;;;4958319;29;19921;-79
2022/11/15 04:46:00;;;;;;;;;;;11.60;74.00;;;;;;4956550;29;19937;-79
2022/11/15 04:48:45;;;;;;;;;;;11.60;74.00;;;;;;4957207;29;19925;-80
2022/11/15 04:51:29;;;;;;;;;;;11.60;73.90;;;;;;4943120;29;19925;-81
2022/11/15 04:54:13;;;;;;;;;;;11.60;73.90;;;;;;4956952;29;19965;-79
2022/11/15 04:56:57;;;;;;;;;;;11.60;73.90;;;;;;4956957;29;19925;-79
2022/11/15 04:59:41;;;;;;;;;;;11.60;73.90;;;;;;4958003;29;20347;-79
2022/11/15 05:04:18;;;;;;;;;;;11.60;73.90;;;;;;4957319;29;19943;-78
2022/11/15 05:05:30;;;;;;;;;;;11.70;74.00;;;;;;4956624;29;19950;-79
2022/11/15 05:08:14;;;;;;;;;;;11.70;73.90;;;;;;4956613;29;20271;-80
2022/11/15 05:10:58;;;;;;;;;;;11.70;73.90;;;;;;4943039;29;19954;-78
2022/11/15 05:13:43;;;;;;;;;;;11.70;73.90;;;;;;4956953;29;19921;-79
2022/11/15 05:16:27;;;;;;;;;;;11.70;73.90;;;;;;4955857;29;19969;-79
2022/11/15 05:19:11;;;;;;;;;;;11.80;73.90;;;;;;4942923;29;19925;-79
2022/11/15 05:21:55;;;;;;;;;;;11.80;73.90;;;;;;4956798;29;19926;-78
2022/11/15 05:24:39;;;;;;;;;;;11.80;73.90;;;;;;4956256;29;20328;-79
2022/11/15 05:27:23;;;;;;;;;;;11.80;73.90;;;;;;4956373;29;19928;-78
2022/11/15 05:30:08;;;;;;;;;;;11.80;73.90;;;;;;4955390;28;19925;-78
2022/11/15 05:32:53;;;;;;;;;;;11.80;73.90;;;;;;4956240;29;20061;-78
2022/11/15 05:35:39;;;;;;;;;;;11.80;73.90;;;;;;4955661;29;19922;-78
2022/11/15 05:38:23;;;;;;;;;;;11.80;73.90;;;;;;4955695;29;20024;-79
2022/11/15 05:41:08;;;;;;;;;;;11.90;73.90;;;;;;4955671;29;19968;-79
2022/11/15 05:43:52;;;;;;;;;;;11.90;73.90;;;;;;4942609;29;19925;-79
2022/11/15 05:46:38;;;;;;;;;;;11.90;73.90;;;;;;4956731;29;20312;-80
2022/11/15 05:49:24;;;;;;;;;;;11.90;73.90;;;;;;4955832;29;19925;-80
2022/11/15 05:52:10;;;;;;;;;;;11.90;73.80;;;;;;4955560;29;19965;-80
2022/11/15 05:54:55;;;;;;;;;;;12.00;73.90;;;;;;4956800;29;20355;-81
2022/11/15 05:57:39;;;;;;;;;;;12.00;73.90;;;;;;4956675;29;19921;-81
2022/11/15 06:00:23;;;;;;;;;;;12.00;73.80;;;;;;4955092;29;20069;-80
2022/11/15 06:03:07;;;;;;;;;;;12.00;73.80;;;;;;4956053;29;19969;-79
2022/11/15 06:05:51;;;;;;;;;;;12.00;73.80;;;;;;4955997;29;20359;-79
2022/11/15 06:08:36;;;;;;;;;;;12.10;73.90;;;;;;4956347;29;19922;-79
2022/11/15 06:11:20;;;;;;;;;;;12.00;73.80;;;;;;4956250;29;19969;-79
2022/11/15 06:14:04;;;;;;;;;;;12.10;73.90;;;;;;4955367;29;19950;-79
2022/11/15 06:16:49;;;;;;;;;;;12.10;73.80;;;;;;4955279;29;20460;-79
2022/11/15 06:19:33;;;;;;;;;;;12.10;73.80;;;;;;4941634;29;19960;-80
2022/11/15 06:22:17;;;;;;;;;;;12.10;73.80;;;;;;4955665;29;19926;-79
2022/11/15 06:25:01;;;;;;;;;;;12.10;73.80;;;;;;4954819;29;19933;-80
2022/11/15 06:27:50;;;;;;;;;;;12.20;73.80;;;;;;4955602;29;19929;-80
2022/11/15 06:30:34;;;;;;;;;;;12.20;73.80;;;;;;4955942;29;20324;-80
2022/11/15 06:33:18;;;;;;;;;;;12.20;73.80;;;;;;4941487;29;20021;-80
2022/11/15 06:36:03;;;;;;;;;;;12.20;73.80;;;;;;4955485;29;19969;-80
2022/11/15 06:38:47;;;;;;;;;;;12.20;73.80;;;;;;4956402;29;19921;-80
2022/11/15 06:41:35;;;;;;;;;;;12.20;73.80;;;;;;4956549;28;19921;-79
2022/11/15 06:44:19;;;;;;;;;;;12.30;73.90;;;;;;4959411;29;20303;-79
2022/11/15 06:47:04;;;;;;;;;;;12.30;73.80;;;;;;4958802;29;19945;-81
2022/11/15 06:49:48;;;;;;;;;;;12.30;73.80;;;;;;4960363;29;19925;-80
2022/11/15 06:52:32;;;;;;;;;;;12.30;73.80;;;;;;4945718;29;19973;-80
2022/11/15 06:55:16;;;;;;;;;;;12.30;73.80;;;;;;4958864;29;19921;-81
2022/11/15 06:58:01;;;;;;;;;;;12.30;73.80;;;;;;4959156;29;19946;-79
2022/11/15 07:00:45;;;;;;;;;;;12.30;73.70;;;;;;4959669;29;20335;-80
2022/11/15 07:03:29;;;;;;;;;;;12.30;73.70;;;;;;4958647;29;20001;-79
2022/11/15 07:06:13;;;;;;;;;;;12.40;73.80;;;;;;4958332;29;19929;-79
2022/11/15 07:08:57;;;;;;;;;;;12.40;73.70;;;;;;4958999;29;19950;-79
2022/11/15 07:11:41;;;;;;;;;;;12.40;74.40;;;;;;4944892;29;19926;-80
2022/11/15 07:14:25;;;;;;;;;;;12.40;74.30;;;;;;4959853;29;19974;-79
2022/11/15 07:17:10;;;;;;;;;;;12.40;73.70;;;;;;4959350;29;19925;-79
2022/11/15 07:19:54;;;;;;;;;;;12.40;73.70;;;;;;4959803;29;19925;-80
2022/11/15 07:22:38;;;;;;;;;;;12.40;73.70;;;;;;4958234;29;19961;-80
2022/11/15 07:25:23;;;;;;;;;;;12.40;73.70;;;;;;4958007;29;20332;-80
2022/11/15 07:28:07;;;;;;;;;;;12.50;73.70;;;;;;4958791;29;20419;-79
2022/11/15 07:30:51;;;;;;;;;;;12.50;73.70;;;;;;4944776;29;19960;-80
2022/11/15 07:33:35;;;;;;;;;;;12.50;73.70;;;;;;4958108;29;19957;-80
2022/11/15 07:36:20;;;;;;;;;;;12.50;73.70;;;;;;4958590;29;19961;-79
2022/11/15 07:39:04;;;;;;;;;;;12.50;73.70;;;;;;4958393;29;19941;-80
2022/11/15 07:41:49;;;;;;;;;;;12.50;73.70;;;;;;4944851;29;20256;-79
2022/11/15 07:44:33;;;;;;;;;;;12.60;73.70;;;;;;4957811;29;20022;-81
2022/11/15 07:47:17;;;;;;;;;;;12.60;73.80;;;;;;4944747;29;19989;-79
2022/11/15 07:50:02;;;;;;;;;;;12.60;73.70;;;;;;4958271;29;19966;-80
2022/11/15 07:52:46;;;;;;;;;;;12.60;73.70;;;;;;4943573;29;19925;-79
2022/11/15 07:55:31;;;;;;;;;;;12.60;73.70;;;;;;4959174;29;19926;-81
2022/11/15 07:58:15;;;;;;;;;;;12.60;73.70;;;;;;4958542;29;20406;-80
2022/11/15 08:01:02;;;;;;;;;;;12.60;73.70;;;;;;4944044;29;19925;-78
2022/11/15 08:03:46;;;;;;;;;;;12.60;73.70;;;;;;4959013;29;19961;-79
2022/11/15 08:06:31;;;;;;;;;;;12.60;73.70;;;;;;4943704;29;19993;-80
2022/11/15 08:09:15;;;;;;;;;;;12.70;73.80;;;;;;4958807;29;19924;-80
2022/11/15 08:11:59;;;;;;;;;;;12.60;73.70;;;;;;4958528;29;19922;-80
2022/11/15 08:14:44;;;;;;;;;;;12.70;73.70;;;;;;4958203;29;20006;-81
2022/11/15 08:17:31;;;;;;;;;;;12.70;73.70;;;;;;4957325;29;19922;-81
2022/11/15 08:20:16;;;;;;;;;;;12.70;73.80;;;;;;4957333;29;20058;-80
2022/11/15 08:23:01;;;;;;;;;;;12.70;73.70;;;;;;4958191;29;20420;-80
2022/11/15 08:25:45;;;;;;;;;;;12.80;73.80;;;;;;4956814;29;19942;-81
2022/11/15 08:28:30;;;;;;;;;;;12.70;73.70;;;;;;4957485;29;20018;-80
2022/11/15 08:31:16;;;;;;;;;;;12.80;73.80;;;;;;4956902;29;20236;-79
2022/11/15 08:34:01;;;;;;;;;;;12.80;73.80;;;;;;4957321;29;20381;-80
2022/11/15 08:36:44;;;;;;;;;;;12.80;73.70;;;;;;4958224;29;19922;-81
2022/11/15 08:39:29;;;;;;;;;;;12.80;73.80;;;;;;4956852;29;20275;-80
2022/11/15 08:42:14;;;;;;;;;;;12.80;73.70;;;;;;4957728;29;19926;-79
2022/11/15 08:44:59;;;;;;;;;;;12.90;73.80;;;;;;4956552;29;19976;-80
2022/11/15 08:47:43;;;;;;;;;;;12.90;73.80;;;;;;4958262;29;20274;-80
2022/11/15 08:50:27;;;;;;;;;;;12.90;73.80;;;;;;4958166;29;19920;-80
2022/11/15 08:53:12;;;;;;;;;;;12.90;73.80;;;;;;4956498;29;20013;-80
2022/11/15 08:55:56;;;;;;;;;;;12.90;73.80;;;;;;4957040;29;19942;-81
2022/11/15 08:58:42;;;;;;;;;;;12.90;73.80;;;;;;4956491;29;20024;-80
2022/11/15 09:01:26;;;;;;;;;;;12.90;73.80;;;;;;4957961;29;19925;-80
2022/11/15 09:04:10;;;;;;;;;;;12.90;73.80;;;;;;4942520;29;19930;-81
2022/11/15 09:06:54;;;;;;;;;;;13.00;73.80;;;;;;4957103;29;19933;-80
2022/11/15 09:09:39;;;;;;;;;;;13.00;73.80;;;;;;4956830;29;19941;-79
2022/11/15 09:12:23;;;;;;;;;;;13.00;73.80;;;;;;4956748;29;19969;-79
2022/11/15 09:15:08;;;;;;;;;;;13.00;73.80;;;;;;4957088;29;19938;-80
2022/11/15 09:17:52;;;;;;;;;;;13.10;73.90;;;;;;4957508;29;19941;-79
2022/11/15 09:20:36;;;;;;;;;;;13.10;73.80;;;;;;4956481;29;19942;-80
2022/11/15 09:23:20;;;;;;;;;;;13.10;73.80;;;;;;4955615;29;19945;-80
2022/11/15 09:26:05;;;;;;;;;;;13.10;73.80;;;;;;4942064;29;19929;-80
2022/11/15 09:28:49;;;;;;;;;;;13.10;73.80;;;;;;4956412;29;19945;-80
2022/11/15 09:31:33;;;;;;;;;;;13.20;73.80;;;;;;4957227;29;19922;-80
2022/11/15 09:34:17;;;;;;;;;;;13.20;73.80;;;;;;4956718;29;19973;-80
2022/11/15 09:37:02;;;;;;;;;;;13.20;73.80;;;;;;4957228;29;19921;-80
2022/11/15 09:39:46;;;;;;;;;;;13.20;73.80;;;;;;4942219;29;19977;-79
2022/11/15 09:42:30;;;;;;;;;;;13.20;73.80;;;;;;4955661;29;19926;-80
2022/11/15 09:45:14;;;;;;;;;;;13.30;73.80;;;;;;4956444;29;19926;-79
2022/11/15 09:48:16;;;;;;;;;;;13.20;73.70;;;;;;4956480;29;19926;-81
2022/11/15 09:51:09;;;;;;;;;;;13.30;73.80;;;;;;4954829;28;19930;-80
2022/11/15 09:53:41;;;;;;;;;;;13.30;73.70;;;;;;4939328;29;19914;-80
2022/11/15 09:56:24;;;;;;;;;;;13.30;73.70;;;;;;4955084;28;19922;-79
2022/11/15 09:58:53;;;;;;;;;;;13.40;73.80;;;;;;4954826;29;20244;-80
2022/11/15 10:01:33;;;;;;;;;;;13.40;73.80;;;;;;4955012;28;19910;-80
2022/11/15 10:03:59;;;;;;;;;;;13.40;73.70;;;;;;4955589;29;19914;-80
2022/11/15 10:06:26;;;;;;;;;;;13.40;73.70;;;;;;4923031;29;19981;-80
2022/11/15 10:08:51;;;;;;;;;;;13.40;73.70;;;;;;4955109;29;19926;-81
2022/11/15 10:11:19;;;;;;;;;;;13.40;73.70;;;;;;4955925;28;19926;-80
2022/11/15 10:13:47;;;;;;;;;;;13.50;73.70;;;;;;4955132;28;19974;-80
2022/11/15 10:16:16;;;;;;;;;;;13.50;73.70;;;;;;4954448;28;19917;-80
2022/11/15 10:18:47;;;;;;;;;;;13.50;73.70;;;;;;4954668;29;19946;-80
2022/11/15 10:21:17;;;;;;;;;;;13.60;73.70;;;;;;4955827;28;19910;-79
2022/11/15 10:23:43;;;;;;;;;;;13.50;73.60;;;;;;4955059;28;20367;-81
2022/11/15 10:26:13;;;;;;;;;;;13.60;73.70;;;;;;4923714;29;19978;-80
2022/11/15 10:28:39;;;;;;;;;;;13.60;73.60;;;;;;4954734;29;19919;-80
2022/11/15 10:31:14;;;;;;;;;;;13.60;73.60;;;;;;4954649;29;19966;-80
2022/11/15 10:33:40;;;;;;;;;;;13.70;73.70;;;;;;4954909;29;19921;-79
2022/11/15 10:36:08;;;;;;;;;;;13.70;73.70;;;;;;4954508;29;19914;-79
2022/11/15 10:39:06;;;;;;;;;;;13.70;73.70;;;;;;4954272;29;20434;-80
2022/11/15 10:41:34;;;;;;;;;;;13.70;73.70;;;;;;4943745;29;19914;-80
2022/11/15 10:44:06;;;;;;;;;;;13.70;73.70;;;;;;4954510;29;20360;-80
2022/11/15 10:46:32;;;;;;;;;;;13.80;73.70;;;;;;4954240;29;19989;-79
2022/11/15 10:49:20;;;;;;;;;;;13.80;73.70;;;;;;4954464;28;20359;-80
2022/11/15 10:51:51;;;;;;;;;;;13.80;73.60;;;;;;4954709;29;19914;-78
2022/11/15 10:54:23;;;;;;;;;;;13.80;73.60;;;;;;4954420;28;19914;-80
2022/11/15 10:56:51;;;;;;;;;;;13.80;73.60;;;;;;4955290;28;20244;-79
2022/11/15 10:59:22;;;;;;;;;;;13.80;73.60;;;;;;4954119;28;19970;-80
2022/11/15 11:01:48;;;;;;;;;;;13.80;73.50;;;;;;4954940;29;20280;-82
2022/11/15 11:04:14;;;;;;;;;;;13.90;73.60;;;;;;4938560;28;19915;-82
2022/11/15 11:06:56;;;;;;;;;;;13.90;73.60;;;;;;4938261;29;19981;-80
2022/11/15 11:09:35;;;;;;;;;;;13.90;73.60;;;;;;4955425;28;19915;-82
2022/11/15 11:12:02;;;;;;;;;;;13.90;73.60;;;;;;4954447;29;19941;-81
2022/11/15 11:14:30;;;;;;;;;;;14.00;73.60;;;;;;4954223;28;20363;-81
2022/11/15 11:17:15;;;;;;;;;;;13.90;73.50;;;;;;4955665;28;19921;-84
2022/11/15 11:19:40;;;;;;;;;;;14.00;73.60;;;;;;4954772;29;20340;-84
2022/11/15 11:22:06;;;;;;;;;;;14.00;73.60;;;;;;4955095;28;19921;-81
2022/11/15 11:24:37;;;;;;;;;;;14.00;73.60;;;;;;4953940;29;19914;-81
2022/11/15 11:27:30;;;;;;;;;;;14.00;73.60;;;;;;4955034;28;19930;-81
2022/11/15 11:30:11;;;;;;;;;;;14.00;73.60;;;;;;4958697;29;19923;-82
2022/11/15 11:32:37;;;;;;;;;;;14.10;73.70;;;;;;4958362;29;19915;-82
2022/11/15 11:35:11;;;;;;;;;;;14.10;73.70;;;;;;4957883;28;19957;-82
2022/11/15 11:37:43;;;;;;;;;;;14.10;73.70;;;;;;4957765;28;19921;-82
2022/11/15 11:40:23;;;;;;;;;;;14.10;73.70;;;;;;4959342;28;19922;-81
2022/11/15 11:42:59;;;;;;;;;;;14.10;73.70;;;;;;4957852;29;19922;-82
2022/11/15 11:45:24;;;;;;;;;;;14.10;73.70;;;;;;4957939;29;19919;-83
2022/11/15 11:48:10;;;;;;;;;;;14.00;74.30;;;;;;4957857;28;19918;-82
2022/11/15 11:50:37;;;;;;;;;;;14.10;73.70;;;;;;4956854;29;19973;-81
2022/11/15 11:53:08;;;;;;;;;;;14.10;73.70;;;;;;4958422;28;20467;-81
2022/11/15 11:55:45;;;;;;;;;;;14.10;73.70;;;;;;4957689;28;20255;-81
2022/11/15 11:58:27;;;;;;;;;;;14.10;73.70;;;;;;4957072;29;20372;-81
2022/11/15 12:00:55;;;;;;;;;;;14.10;73.60;;;;;;4957394;28;19915;-81
2022/11/15 12:03:29;;;;;;;;;;;14.10;73.60;;;;;;4957381;28;20402;-81
2022/11/15 12:06:02;;;;;;;;;;;14.10;74.30;;;;;;4958342;28;19926;-81
2022/11/15 12:08:32;;;;;;;;;;;14.10;73.60;;;;;;4957453;29;19915;-82
2022/11/15 12:11:01;;;;;;;;;;;14.20;73.70;;;;;;4957399;28;19914;-82
2022/11/15 12:13:28;;;;;;;;;;;14.20;73.70;;;;;;4957146;28;20009;-82
2022/11/15 12:16:01;;;;;;;;;;;14.20;73.60;;;;;;4957696;29;19915;-82
2022/11/15 12:18:27;;;;;;;;;;;14.20;73.90;;;;;;4958213;28;19915;-82
2022/11/15 12:21:16;;;;;;;;;;;14.20;73.60;;;;;;4958099;28;19922;-82
2022/11/15 12:23:48;;;;;;;;;;;14.20;73.60;;;;;;4956376;29;19962;-81
2022/11/15 12:26:20;;;;;;;;;;;14.20;73.60;;;;;;4956631;28;19918;-82
2022/11/15 12:28:52;;;;;;;;;;;14.20;73.60;;;;;;4957043;29;19961;-83
2022/11/15 12:31:23;;;;;;;;;;;14.20;73.60;;;;;;4957087;29;19921;-83
2022/11/15 12:33:49;;;;;;;;;;;14.20;73.60;;;;;;4957116;28;19914;-82
2022/11/15 12:36:21;;;;;;;;;;;14.20;73.60;;;;;;4940870;29;19937;-83
2022/11/15 12:38:52;;;;;;;;;;;14.20;73.60;;;;;;4957119;28;19930;-83
2022/11/15 12:41:19;;;;;;;;;;;14.20;73.60;;;;;;4956932;28;20363;-82
2022/11/15 12:43:46;;;;;;;;;;;14.30;73.60;;;;;;4957229;28;19914;-83
2022/11/15 12:46:30;;;;;;;;;;;14.20;73.60;;;;;;4956639;29;19930;-82
2022/11/15 12:49:04;;;;;;;;;;;14.30;73.60;;;;;;4956816;29;19929;-82
2022/11/15 12:51:41;;;;;;;;;;;14.20;73.60;;;;;;4957603;29;19962;-82
2022/11/15 12:54:22;;;;;;;;;;;14.30;73.60;;;;;;4956582;29;19918;-81
2022/11/15 12:57:03;;;;;;;;;;;14.20;73.50;;;;;;4955967;29;19915;-80
2022/11/15 12:59:48;;;;;;;;;;;14.30;73.60;;;;;;4957562;28;20001;-82
2022/11/15 13:02:19;;;;;;;;;;;14.30;73.60;;;;;;4957769;28;19961;-83
2022/11/15 13:04:45;;;;;;;;;;;14.30;73.60;;;;;;4956391;29;20308;-81
2022/11/15 13:07:30;;;;;;;;;;;14.30;73.60;;;;;;4939880;28;19981;-82
2022/11/15 13:09:56;;;;;;;;;;;14.30;73.60;;;;;;4957282;28;19911;-81
2022/11/15 13:12:27;;;;;;;;;;;14.30;73.60;;;;;;4957423;28;19914;-80
2022/11/15 13:14:54;;;;;;;;;;;14.30;73.60;;;;;;4955795;29;19914;-81
2022/11/15 13:17:26;;;;;;;;;;;14.30;73.60;;;;;;4955767;28;19957;-80
2022/11/15 13:19:56;;;;;;;;;;;14.30;73.60;;;;;;4956695;28;19957;-82
2022/11/15 13:25:15;;;;;;;;;;;14.30;73.60;;;;;;4955607;29;19978;-81
2022/11/15 13:27:40;;;;;;;;;;;14.30;73.60;;;;;;4955759;29;20064;-80
2022/11/15 13:30:13;;;;;;;;;;;14.30;73.60;;;;;;4956296;28;19949;-82
2022/11/15 13:32:39;;;;;;;;;;;14.30;73.60;;;;;;4955852;29;20363;-80
2022/11/15 13:35:06;;;;;;;;;;;14.30;73.60;;;;;;4955376;29;19918;-79
2022/11/15 13:37:33;;;;;;;;;;;14.30;73.60;;;;;;4956614;28;19915;-80
2022/11/15 13:40:10;;;;;;;;;;;14.30;73.60;;;;;;4955057;28;19945;-81
2022/11/15 13:42:36;;;;;;;;;;;14.30;73.60;;;;;;4957106;28;19914;-80
2022/11/15 13:45:04;;;;;;;;;;;14.40;73.60;;;;;;4955276;29;19914;-80
2022/11/15 13:47:31;;;;;;;;;;;14.30;73.60;;;;;;4956409;28;19995;-80
2022/11/15 13:49:57;;;;;;;;;;;14.30;73.60;;;;;;4955060;28;20382;-81
2022/11/15 13:52:24;;;;;;;;;;;14.40;73.60;;;;;;4938531;29;19926;-81
2022/11/15 13:54:57;;;;;;;;;;;14.40;73.60;;;;;;4955828;28;19961;-81
2022/11/15 13:57:22;;;;;;;;;;;14.40;73.60;;;;;;4955371;28;19914;-80
2022/11/15 13:59:53;;;;;;;;;;;14.30;73.60;;;;;;4955813;28;20256;-80
2022/11/15 14:02:20;;;;;;;;;;;14.30;73.60;;;;;;4955615;29;19922;-80
2022/11/15 14:04:55;;;;;;;;;;;14.40;73.60;;;;;;4954841;28;19986;-81
2022/11/15 14:07:22;;;;;;;;;;;14.40;73.60;;;;;;4954789;28;20442;-80
2022/11/15 14:09:48;;;;;;;;;;;14.40;73.60;;;;;;4955157;29;19915;-80
2022/11/15 14:12:43;;;;;;;;;;;14.40;73.60;;;;;;4955078;29;19938;-80
2022/11/15 14:15:24;;;;;;;;;;;14.40;73.60;;;;;;4954782;29;20283;-82
2022/11/15 14:17:50;;;;;;;;;;;14.40;73.60;;;;;;4954833;29;19914;-80
2022/11/15 14:20:25;;;;;;;;;;;14.40;73.60;;;;;;4955480;28;19915;-81
2022/11/15 14:22:55;;;;;;;;;;;14.40;73.60;;;;;;4955137;29;20005;-82
2022/11/15 14:25:39;;;;;;;;;;;14.40;73.60;;;;;;4955460;29;20076;-82
2022/11/15 14:28:23;;;;;;;;;;;14.40;73.60;;;;;;4955225;29;20379;-81
2022/11/15 14:30:50;;;;;;;;;;;14.40;73.60;;;;;;4955089;28;20351;-82
2022/11/15 14:33:19;;;;;;;;;;;14.40;73.60;;;;;;4955948;28;20443;-82
2022/11/15 14:35:44;;;;;;;;;;;14.40;74.20;;;;;;4955655;28;19914;-81
2022/11/15 14:38:10;;;;;;;;;;;14.40;73.60;;;;;;4954654;28;19998;-82
2022/11/15 14:40:36;;;;;;;;;;;14.40;73.60;;;;;;4939081;29;19919;-82
2022/11/15 14:43:01;;;;;;;;;;;14.40;74.20;;;;;;4938798;29;19915;-82
2022/11/15 14:45:27;;;;;;;;;;;14.40;73.60;;;;;;4954264;29;19926;-82
2022/11/15 14:47:52;;;;;;;;;;;14.40;73.60;;;;;;4954750;29;19914;-82
2022/11/15 14:50:19;;;;;;;;;;;14.40;73.60;;;;;;4954596;29;19915;-82
2022/11/15 14:52:45;;;;;;;;;;;14.40;73.60;;;;;;4954950;29;19914;-82
2022/11/15 14:55:28;;;;;;;;;;;14.40;73.50;;;;;;4954717;29;19973;-82
2022/11/15 14:57:54;;;;;;;;;;;14.40;73.60;;;;;;4954728;29;19957;-81
2022/11/15 15:00:20;;;;;;;;;;;14.40;73.50;;;;;;4954665;28;19961;-81
2022/11/15 15:02:46;;;;;;;;;;;14.40;73.50;;;;;;4956805;28;19942;-82
2022/11/15 15:05:23;;;;;;;;;;;14.40;73.50;;;;;;4942680;29;20025;-82
2022/11/15 15:07:49;;;;;;;;;;;14.40;73.50;;;;;;4959383;28;19962;-81
2022/11/15 15:10:15;;;;;;;;;;;14.40;73.50;;;;;;4958327;29;20000;-82
2022/11/15 15:12:41;;;;;;;;;;;14.40;73.50;;;;;;4959434;28;19964;-81
2022/11/15 15:15:17;;;;;;;;;;;14.40;73.50;;;;;;4958124;28;19906;-82
2022/11/15 15:17:43;;;;;;;;;;;14.40;73.50;;;;;;4958188;28;20263;-81
2022/11/15 15:20:09;;;;;;;;;;;14.40;73.50;;;;;;4958069;28;19917;-82
2022/11/15 15:22:35;;;;;;;;;;;14.40;74.10;;;;;;4958264;28;20347;-82
2022/11/15 15:25:01;;;;;;;;;;;14.40;73.40;;;;;;4957683;29;19921;-82
2022/11/15 15:27:27;;;;;;;;;;;14.40;73.40;;;;;;4942151;29;19930;-82
2022/11/15 15:29:53;;;;;;;;;;;14.40;73.40;;;;;;4957844;28;19915;-81
2022/11/15 15:32:19;;;;;;;;;;;14.40;73.40;;;;;;4957730;29;19919;-81
2022/11/15 15:34:44;;;;;;;;;;;14.40;73.40;;;;;;4957656;28;19915;-81
2022/11/15 15:37:22;;;;;;;;;;;14.40;73.40;;;;;;4958275;29;19918;-80
2022/11/15 15:39:49;;;;;;;;;;;14.40;73.50;;;;;;4957742;29;19915;-80
2022/11/15 15:42:14;;;;;;;;;;;14.40;73.40;;;;;;4941769;28;19922;-83